Ann Arbor, MI

16:27 EST le 17 décembre 2014 (GMT -0500)
Walker Briar Works | Change Station
CLOSE
Current Station
Stations météorologiques personnelles
Location: Ann Arbor, MI
Altitude: 961 ft
Stations météo à proximité

Alt. 961 ft 42.26 °N, 83.77 °W | Updated 7 minutes ago

Couvert
Couvert
29.3 ° F
Paraît 29 ° F
N
2.2
Vent Variable Vent de SO
Gusts 7.6 mph

Aujourd'hui
Haut(e) -- | Bas -- ° F
--% Risque de précip.
Hier
Haut(e) -- | Bas -- ° F
Precip. -- pouce
7:58 AM 5:04 PM
Lune descendante, 19% visible
Pression 30.10 pouce
Visibilité 10.0 Miles terrestres
Nuages Couvert 2100 ft
Refroidissement éolien 29 ° F
Point de rosée 23 ° F
Humidité 78%
Précipitations 0.00 pouce
Profondeur de la couche neigeuse Non disponible.
UV 0 sur 12
Pollen .10 sur 12
Qualité de l'air Non disponible.
Flu Activity Non disponible.
METAR KARB 172053Z 29013KT 10SM OVC021 M01/M06 A3008 RMK AO2 SLP193 T10111061 53002

More Conditions Fewer Conditions

Pression 30.10 pouce
Visibilité 10.0 Miles terrestres
Nuages Couvert 2100 ft
Refroidissement éolien 29 ° F
Point de rosée 23 ° F
Humidité 78%
Précipitations 0.00 pouce
Profondeur de la couche neigeuse Non disponible.
UV 0 sur 12
Pollen .10 sur 12
Qualité de l'air Non disponible.
Flu Activity Non disponible.
METAR KARB 172053Z 29013KT 10SM OVC021 M01/M06 A3008 RMK AO2 SLP193 T10111061 53002

More Conditions Fewer Conditions

10-Day Weather Forecast

Almanac

Astronomie

Dec. 17, 2014 Lever Coucher
Temps réel
Crépuscule civil
Crépuscule nautique
Crépuscule astronomique
Lune
Durée de lumière visible
Longueur du jour
Tomorrow will be .
, % of the Moon is Illuminated

Extrêmes aujourd'hui

State Highs State Lows

Community

WunderPhotos

Upload Photos

1,778,806 Photos téléchargées !

WunderBlogs® & News

Nearby

Qualité de l'air

  Qualité de l'air Indice de la qualité de l'air Polluant
Not available.

Épaisseur de neige

Station Depth Altitude

Activité sismique

Ville Distance Mag. Time & Date
Minimum magnitude displayed is 2.5.

Températures des eaux côtières

Lieu Température

Stations météo à proximité